Time;durP1;ratioP1;P1;durP2;ratioP2;P2;SDS_P1;SDS_P2;PMS_P1;PMS_P2;Temp;Humidity;BMP_temperature;BMP_pressure;BME280_temperature;BME280_humidity;BME280_pressure;Samples;Min_cycle;Max_cycle;Signal;HPM_P1;HPM_P2
2024/01/09 00:01:03;;;;;;;1.47;1.23;;;-3.00;31.00;;;;;;5013747;28;20686;-41
2024/01/09 00:03:30;;;;;;;3.55;1.55;;;-3.00;31.20;;;;;;5031784;28;20467;-40
2024/01/09 00:05:56;;;;;;;2.35;1.85;;;-3.10;31.10;;;;;;5031849;28;20237;-48
2024/01/09 00:08:22;;;;;;;1.97;1.87;;;-3.10;31.10;;;;;;5031899;28;20628;-46
2024/01/09 00:10:48;;;;;;;0.80;0.52;;;-3.20;31.30;;;;;;5031384;28;20514;-45
2024/01/09 00:13:14;;;;;;;3.80;1.60;;;-3.20;31.40;;;;;;5031769;28;20217;-41
2024/01/09 00:15:39;;;;;;;0.70;0.30;;;-3.30;31.20;;;;;;5031815;28;20747;-42
2024/01/09 00:18:05;;;;;;;3.60;2.63;;;-3.30;31.30;;;;;;5032000;28;20185;-46
2024/01/09 00:20:31;;;;;;;0.70;0.20;;;-3.40;31.30;;;;;;5031976;28;20453;-47
2024/01/09 00:22:57;;;;;;;0.90;0.63;;;-3.40;31.40;;;;;;5031553;28;20961;-41
2024/01/09 00:25:23;;;;;;;0.80;0.47;;;-3.40;31.80;;;;;;5031872;28;20417;-48
2024/01/09 00:27:49;;;;;;;2.13;2.03;;;-3.40;31.80;;;;;;5032150;28;20516;-46
2024/01/09 00:30:15;;;;;;;1.03;0.60;;;-3.40;31.80;;;;;;5031546;28;20437;-43
2024/01/09 00:32:46;;;;;;;0.70;0.20;;;-3.30;31.80;;;;;;5017386;28;20416;-49
2024/01/09 00:35:16;;;;;;;0.88;0.75;;;-3.30;31.90;;;;;;5019023;28;20467;-47
2024/01/09 00:37:42;;;;;;;4.70;2.38;;;-3.30;31.80;;;;;;5035522;28;20265;-42
2024/01/09 00:40:08;;;;;;;0.70;0.20;;;-3.30;32.00;;;;;;5035210;28;20611;-43
2024/01/09 00:42:34;;;;;;;0.80;0.43;;;-3.30;32.10;;;;;;5035399;28;20225;-41
2024/01/09 00:45:01;;;;;;;0.82;0.63;;;-3.30;32.00;;;;;;5035267;28;20166;-44
2024/01/09 00:47:27;;;;;;;0.80;0.43;;;-3.30;32.30;;;;;;5035548;28;20266;-46
2024/01/09 00:49:53;;;;;;;0.90;0.68;;;-3.30;32.00;;;;;;5035168;28;20626;-46
2024/01/09 00:52:19;;;;;;;0.87;0.70;;;-3.30;32.10;;;;;;5035148;28;20181;-44
2024/01/09 00:54:45;;;;;;;0.70;0.40;;;-3.30;31.80;;;;;;5035268;28;20417;-46
2024/01/09 00:57:11;;;;;;;1.30;1.20;;;-3.30;31.70;;;;;;5035025;28;20259;-46
2024/01/09 00:59:37;;;;;;;2.33;2.13;;;-3.30;31.90;;;;;;5034935;28;20656;-43
2024/01/09 01:02:03;;;;;;;1.08;0.98;;;-3.40;31.60;;;;;;5034909;28;20212;-47
2024/01/09 01:04:29;;;;;;;1.45;1.35;;;-3.40;31.90;;;;;;5017230;28;20636;-46
2024/01/09 01:06:55;;;;;;;0.70;0.38;;;-3.40;32.10;;;;;;5035007;28;20177;-45
2024/01/09 01:09:22;;;;;;;2.90;2.70;;;-3.40;32.10;;;;;;5034648;28;20189;-45
2024/01/09 01:11:48;;;;;;;2.45;0.93;;;-3.40;32.20;;;;;;5034845;28;20178;-43
2024/01/09 01:14:14;;;;;;;2.83;2.63;;;-3.40;32.00;;;;;;5034961;28;20256;-43
2024/01/09 01:16:39;;;;;;;0.70;0.20;;;-3.40;32.10;;;;;;5017158;28;20260;-43
2024/01/09 01:19:05;;;;;;;1.70;1.20;;;-3.40;32.00;;;;;;5034464;28;20478;-43
2024/01/09 01:21:31;;;;;;;0.90;0.63;;;-3.40;32.50;;;;;;5034636;28;20432;-44
2024/01/09 01:23:57;;;;;;;5.00;1.47;;;-3.40;31.80;;;;;;5034606;28;20421;-43
2024/01/09 01:26:23;;;;;;;0.90;0.50;;;-3.40;31.80;;;;;;5034557;28;20994;-44
2024/01/09 01:28:48;;;;;;;0.70;0.20;;;-3.40;31.90;;;;;;5034724;28;20209;-47
2024/01/09 01:31:14;;;;;;;0.70;0.30;;;-3.40;32.00;;;;;;5034374;28;20774;-45
2024/01/09 01:33:40;;;;;;;2.90;1.50;;;-3.40;31.90;;;;;;5034402;28;20464;-42
2024/01/09 01:36:12;;;;;;;0.70;0.30;;;-3.40;31.80;;;;;;5034343;28;20457;-46
2024/01/09 01:38:37;;;;;;;0.80;0.47;;;-3.50;31.90;;;;;;5034460;28;20417;-44
2024/01/09 01:41:03;;;;;;;1.80;1.70;;;-3.50;31.90;;;;;;5034147;28;20201;-42
2024/01/09 01:43:29;;;;;;;0.70;0.30;;;-3.50;32.10;;;;;;5033129;28;20223;-44
2024/01/09 01:45:55;;;;;;;2.47;2.30;;;-3.50;32.00;;;;;;5034338;28;20474;-46
2024/01/09 01:48:21;;;;;;;3.07;2.87;;;-3.50;31.80;;;;;;5034203;28;20186;-41
2024/01/09 01:50:49;;;;;;;0.90;0.70;;;-3.50;31.80;;;;;;5033873;28;20949;-41
2024/01/09 01:53:15;;;;;;;3.40;2.15;;;-3.50;31.80;;;;;;5033941;28;20484;-44
2024/01/09 01:55:41;;;;;;;0.70;0.30;;;-3.60;31.70;;;;;;5034356;28;20174;-42
2024/01/09 01:58:07;;;;;;;1.52;0.95;;;-3.60;31.70;;;;;;5033901;28;20197;-41
2024/01/09 02:00:34;;;;;;;0.80;0.50;;;-3.60;31.90;;;;;;5033796;28;20279;-45
2024/01/09 02:03:00;;;;;;;1.73;1.63;;;-3.60;31.80;;;;;;5033876;28;20185;-46
2024/01/09 02:05:29;;;;;;;2.28;2.08;;;-3.60;31.70;;;;;;5033907;28;20181;-42
2024/01/09 02:07:57;;;;;;;2.83;2.63;;;-3.60;32.00;;;;;;5033884;28;20188;-46
2024/01/09 02:10:23;;;;;;;1.00;0.90;;;-3.60;31.90;;;;;;5033584;28;20198;-45
2024/01/09 02:12:50;;;;;;;1.42;1.33;;;-3.60;31.80;;;;;;5033854;28;20209;-48
2024/01/09 02:15:16;;;;;;;0.90;0.60;;;-3.60;31.70;;;;;;5033809;28;20201;-42
2024/01/09 02:17:42;;;;;;;0.80;0.50;;;-3.70;31.90;;;;;;5034710;28;20177;-44
2024/01/09 02:20:10;;;;;;;0.90;0.80;;;-3.70;31.80;;;;;;5034183;28;20201;-45
2024/01/09 02:22:36;;;;;;;0.90;0.68;;;-3.70;32.00;;;;;;5034444;28;20288;-43
2024/01/09 02:25:02;;;;;;;6.50;2.20;;;-3.70;32.20;;;;;;5025341;28;20683;-47
2024/01/09 02:27:46;;;;;;;1.55;1.15;;;-3.70;32.00;;;;;;5013830;28;20179;-49
2024/01/09 02:30:12;;;;;;;2.80;2.50;;;-3.70;31.90;;;;;;5014971;28;20281;-43
2024/01/09 02:32:38;;;;;;;1.77;1.67;;;-3.80;31.70;;;;;;5033249;28;20204;-44
2024/01/09 02:35:05;;;;;;;1.40;1.30;;;-3.80;31.90;;;;;;5033341;28;20679;-42
2024/01/09 02:37:30;;;;;;;0.90;0.65;;;-3.80;32.00;;;;;;5033402;28;20266;-49
2024/01/09 02:40:00;;;;;;;1.53;0.87;;;-3.80;32.10;;;;;;5032907;28;20296;-40
2024/01/09 02:42:26;;;;;;;2.28;2.08;;;-3.70;32.00;;;;;;5033114;28;20409;-43
2024/01/09 02:44:55;;;;;;;2.78;1.20;;;-3.80;31.90;;;;;;5033122;28;20376;-48
2024/01/09 02:47:22;;;;;;;2.25;2.15;;;-3.80;31.80;;;;;;5033004;28;20182;-47
2024/01/09 02:49:48;;;;;;;2.65;0.93;;;-3.80;32.00;;;;;;5032864;28;20240;-43
2024/01/09 02:52:15;;;;;;;0.70;0.23;;;-3.80;32.00;;;;;;5032841;28;20202;-44
2024/01/09 02:54:41;;;;;;;3.28;1.25;;;-3.80;32.00;;;;;;5032490;28;20482;-44
2024/01/09 02:57:07;;;;;;;0.70;0.20;;;-3.80;31.90;;;;;;5032859;28;20217;-44
2024/01/09 02:59:32;;;;;;;0.70;0.20;;;-3.80;32.20;;;;;;5032661;28;20522;-46
2024/01/09 03:01:58;;;;;;;2.10;1.67;;;-3.90;32.10;;;;;;5032662;28;20790;-44
2024/01/09 03:04:24;;;;;;;0.70;0.37;;;-3.90;32.30;;;;;;5032908;28;20415;-42
2024/01/09 03:06:50;;;;;;;0.70;0.50;;;-3.90;32.20;;;;;;5032901;28;20686;-46
2024/01/09 03:09:16;;;;;;;2.80;1.80;;;-3.90;32.20;;;;;;5032445;28;20206;-46
2024/01/09 03:11:43;;;;;;;0.70;0.20;;;-3.90;32.20;;;;;;5015048;28;20421;-41
2024/01/09 03:14:09;;;;;;;1.48;1.38;;;-3.90;32.10;;;;;;5032374;28;20757;-44
2024/01/09 03:16:35;;;;;;;0.90;0.77;;;-4.00;31.90;;;;;;5028077;28;20182;-42
2024/01/09 03:19:01;;;;;;;0.70;0.20;;;-4.10;31.50;;;;;;5012596;28;20418;-41
2024/01/09 03:21:27;;;;;;;1.55;1.40;;;-4.10;31.90;;;;;;5012576;28;20178;-47
2024/01/09 03:23:53;;;;;;;3.37;1.63;;;-4.10;32.10;;;;;;5012791;28;20178;-47
2024/01/09 03:26:19;;;;;;;0.77;0.45;;;-4.10;32.30;;;;;;5012652;28;20413;-44
2024/01/09 03:28:45;;;;;;;0.70;0.30;;;-4.10;32.30;;;;;;5012572;28;20233;-45
2024/01/09 03:31:24;;;;;;;6.80;1.70;;;-4.00;32.20;;;;;;5012471;28;20541;-48
2024/01/09 03:33:50;;;;;;;1.75;1.20;;;-4.10;32.30;;;;;;4994926;28;20457;-42
2024/01/09 03:36:17;;;;;;;0.70;0.30;;;-4.10;32.40;;;;;;5014271;28;20195;-46
2024/01/09 03:38:43;;;;;;;2.25;1.40;;;-4.10;32.40;;;;;;5032367;28;20190;-42
2024/01/09 03:41:09;;;;;;;0.80;0.47;;;-4.00;32.20;;;;;;5031723;28;20279;-46
2024/01/09 03:43:35;;;;;;;2.45;1.85;;;-4.10;32.00;;;;;;5032182;28;20180;-42
2024/01/09 03:46:01;;;;;;;1.57;1.37;;;-4.10;32.20;;;;;;5032332;28;20171;-45
2024/01/09 03:48:27;;;;;;;6.78;2.38;;;-4.20;31.90;;;;;;5028895;28;20852;-47
2024/01/09 03:50:53;;;;;;;1.77;1.67;;;-4.20;31.90;;;;;;5012007;28;20241;-43
2024/01/09 03:53:19;;;;;;;0.70;0.22;;;-4.20;31.90;;;;;;5012140;28;20457;-49
2024/01/09 03:55:45;;;;;;;1.83;1.60;;;-4.40;31.40;;;;;;5012299;28;20254;-44
2024/01/09 03:58:12;;;;;;;2.75;2.15;;;-4.50;31.50;;;;;;5012083;28;20468;-44
2024/01/09 04:00:38;;;;;;;15.23;3.25;;;-4.60;31.40;;;;;;5011945;28;20202;-47
2024/01/09 04:03:05;;;;;;;0.70;0.33;;;-4.70;31.50;;;;;;5012006;28;20240;-46
2024/01/09 04:05:31;;;;;;;4.93;2.17;;;-4.70;31.80;;;;;;5011709;28;20417;-41
2024/01/09 04:07:57;;;;;;;0.80;0.40;;;-4.70;31.90;;;;;;5012029;28;20179;-43
2024/01/09 04:10:23;;;;;;;2.35;1.85;;;-4.70;32.00;;;;;;5011729;28;20206;-42
2024/01/09 04:12:49;;;;;;;1.13;1.03;;;-4.60;32.00;;;;;;5012107;28;20303;-46
2024/01/09 04:15:15;;;;;;;0.80;0.52;;;-4.60;31.90;;;;;;5013776;28;20412;-43
2024/01/09 04:17:41;;;;;;;1.90;1.80;;;-4.60;32.50;;;;;;5031923;28;20170;-41
2024/01/09 04:20:11;;;;;;;2.78;2.58;;;-4.60;31.90;;;;;;5031409;28;20676;-44
2024/01/09 04:22:36;;;;;;;3.90;1.92;;;-4.60;32.20;;;;;;5031587;28;20682;-42
2024/01/09 04:25:02;;;;;;;0.70;0.30;;;-4.60;32.00;;;;;;5031431;28;20186;-44
2024/01/09 04:27:28;;;;;;;3.33;3.03;;;-4.60;31.70;;;;;;5031758;28;20427;-45
2024/01/09 04:29:54;;;;;;;2.70;2.57;;;-4.70;31.60;;;;;;5031325;28;20521;-44
2024/01/09 04:32:20;;;;;;;1.67;0.87;;;-4.70;31.80;;;;;;5031285;28;20548;-50
2024/01/09 04:34:46;;;;;;;2.40;2.30;;;-4.80;31.80;;;;;;5031616;28;20177;-43
2024/01/09 04:37:11;;;;;;;1.50;1.40;;;-4.90;32.60;;;;;;5030494;28;20185;-42
2024/01/09 04:39:37;;;;;;;0.70;0.20;;;-4.90;31.90;;;;;;5011404;28;20452;-48
2024/01/09 04:42:03;;;;;;;0.70;0.33;;;-4.90;32.00;;;;;;5011821;28;20504;-41
2024/01/09 04:44:29;;;;;;;1.35;1.25;;;-5.00;31.90;;;;;;5011669;28;20772;-44
2024/01/09 04:46:55;;;;;;;0.90;0.70;;;-5.00;32.10;;;;;;5011825;28;20257;-41
2024/01/09 04:49:20;;;;;;;3.37;3.13;;;-5.00;32.30;;;;;;5011647;28;20799;-42
2024/01/09 04:51:46;;;;;;;0.77;0.50;;;-5.10;32.20;;;;;;5011677;28;20171;-44
2024/01/09 04:54:12;;;;;;;2.30;1.67;;;-5.10;32.60;;;;;;5011350;28;20615;-44
2024/01/09 04:56:38;;;;;;;0.80;0.53;;;-5.10;32.50;;;;;;5011667;28;20445;-44
2024/01/09 04:59:04;;;;;;;0.70;0.40;;;-5.00;32.80;;;;;;5011378;28;20493;-41
2024/01/09 05:01:29;;;;;;;0.93;0.83;;;-5.00;32.90;;;;;;5003747;28;20694;-43
2024/01/09 05:03:55;;;;;;;0.80;0.40;;;-4.90;32.80;;;;;;5011657;28;20413;-42
2024/01/09 05:06:22;;;;;;;0.90;0.65;;;-4.80;32.70;;;;;;5011496;28;20190;-43
2024/01/09 05:08:48;;;;;;;0.80;0.52;;;-4.80;32.70;;;;;;5011351;28;20667;-46
2024/01/09 05:11:14;;;;;;;1.80;1.63;;;-4.70;33.30;;;;;;5011506;28;20179;-46
2024/01/09 05:13:39;;;;;;;8.55;2.47;;;-4.70;32.70;;;;;;5011479;28;20540;-40
2024/01/09 05:16:05;;;;;;;1.47;1.13;;;-4.70;32.50;;;;;;5011359;28;20720;-46
2024/01/09 05:18:32;;;;;;;0.70;0.30;;;-4.70;32.20;;;;;;5014330;28;20229;-42
2024/01/09 05:20:58;;;;;;;0.70;0.30;;;-4.80;32.20;;;;;;5014800;28;20225;-45
2024/01/09 05:23:25;;;;;;;2.67;2.47;;;-4.70;32.50;;;;;;5014846;28;20206;-41
2024/01/09 05:25:51;;;;;;;0.75;0.45;;;-4.80;32.30;;;;;;5014986;28;20183;-43
2024/01/09 05:28:17;;;;;;;0.80;0.60;;;-4.80;32.00;;;;;;5014921;28;20185;-42
2024/01/09 05:30:43;;;;;;;2.90;2.10;;;-4.80;32.20;;;;;;5014766;28;20440;-43
2024/01/09 05:33:09;;;;;;;3.30;1.52;;;-4.80;32.20;;;;;;5014606;28;20469;-44
2024/01/09 05:35:35;;;;;;;1.27;0.97;;;-4.80;32.30;;;;;;5014981;28;20556;-44
2024/01/09 05:38:01;;;;;;;1.53;1.43;;;-4.80;32.40;;;;;;5014706;28;20306;-46
2024/01/09 05:40:27;;;;;;;0.70;0.30;;;-4.80;32.40;;;;;;4997579;28;20504;-41
2024/01/09 05:42:53;;;;;;;1.30;1.20;;;-4.80;32.50;;;;;;5015020;28;20190;-46
2024/01/09 05:45:18;;;;;;;1.07;0.97;;;-4.70;32.50;;;;;;5015045;28;20184;-42
2024/01/09 05:47:44;;;;;;;4.83;1.60;;;-4.70;32.70;;;;;;5020056;28;20775;-44
2024/01/09 05:50:10;;;;;;;1.53;1.43;;;-4.70;32.50;;;;;;5033914;28;20432;-45
2024/01/09 05:52:37;;;;;;;1.53;1.37;;;-4.70;32.50;;;;;;5034049;28;20459;-44
2024/01/09 05:55:03;;;;;;;0.70;0.28;;;-4.70;32.30;;;;;;5034348;28;20431;-42
2024/01/09 05:57:29;;;;;;;1.45;1.15;;;-4.70;32.60;;;;;;5034222;28;20265;-48
2024/01/09 05:59:55;;;;;;;0.73;0.40;;;-4.70;32.60;;;;;;5033915;28;20520;-42
2024/01/09 06:02:22;;;;;;;2.37;2.03;;;-4.60;32.60;;;;;;5031722;28;20540;-46
2024/01/09 06:04:48;;;;;;;3.95;2.67;;;-4.70;32.20;;;;;;5014274;28;20186;-43
2024/01/09 06:07:15;;;;;;;1.10;0.73;;;-4.70;32.20;;;;;;5014013;28;20453;-44
2024/01/09 06:09:41;;;;;;;0.73;0.45;;;-4.80;32.20;;;;;;5013942;28;20202;-44
2024/01/09 06:12:07;;;;;;;0.85;0.60;;;-6.30;31.50;;;;;;5013741;28;20269;-41
2024/01/09 06:14:33;;;;;;;3.87;3.50;;;-4.80;32.10;;;;;;5014037;28;20263;-46
2024/01/09 06:16:58;;;;;;;1.20;1.07;;;-4.90;32.20;;;;;;5014092;28;20417;-42
2024/01/09 06:19:24;;;;;;;8.23;3.60;;;-5.00;32.40;;;;;;5013587;28;20459;-41
2024/01/09 06:21:50;;;;;;;1.15;1.00;;;-5.00;32.40;;;;;;5013761;28;20216;-48
2024/01/09 06:24:16;;;;;;;9.18;1.35;;;-5.00;32.50;;;;;;5013977;28;20213;-42
2024/01/09 06:26:42;;;;;;;1.63;1.53;;;-5.00;32.60;;;;;;5013672;28;20545;-42
2024/01/09 06:29:08;;;;;;;0.80;0.50;;;-4.90;33.00;;;;;;5012587;28;20499;-46
2024/01/09 06:31:34;;;;;;;2.63;2.47;;;-4.90;32.90;;;;;;5013802;28;20472;-48
2024/01/09 06:34:00;;;;;;;0.70;0.30;;;-4.80;33.00;;;;;;4996062;28;20281;-43
2024/01/09 06:36:26;;;;;;;1.90;1.80;;;-4.80;32.80;;;;;;5013590;28;20479;-46
2024/01/09 06:38:51;;;;;;;1.98;1.85;;;-4.80;32.60;;;;;;5013417;28;20426;-46
2024/01/09 06:41:17;;;;;;;0.70;0.30;;;-4.80;32.50;;;;;;5013132;28;20189;-42
2024/01/09 06:43:43;;;;;;;1.43;1.23;;;-4.80;32.60;;;;;;5013639;28;20472;-42
2024/01/09 06:46:10;;;;;;;2.08;1.45;;;-4.80;32.80;;;;;;5013291;28;20428;-48
2024/01/09 06:48:36;;;;;;;2.20;2.00;;;-4.80;32.70;;;;;;5025767;28;20232;-42
2024/01/09 06:51:02;;;;;;;0.70;0.32;;;-4.70;32.80;;;;;;5032728;28;20198;-48
2024/01/09 06:53:28;;;;;;;0.70;0.40;;;-4.70;32.70;;;;;;5033027;28;20205;-47
2024/01/09 06:55:54;;;;;;;3.77;3.50;;;-4.70;32.70;;;;;;5032883;28;20910;-42
2024/01/09 06:58:20;;;;;;;1.83;1.73;;;-4.70;32.80;;;;;;5033076;28;20235;-48
2024/01/09 07:00:46;;;;;;;5.77;5.37;;;-4.60;32.80;;;;;;5032711;28;20644;-42
2024/01/09 07:03:11;;;;;;;3.07;2.47;;;-4.60;32.80;;;;;;5032659;28;20931;-43
2024/01/09 07:05:37;;;;;;;1.30;1.20;;;-4.60;32.60;;;;;;5015047;28;20427;-46
2024/01/09 07:08:04;;;;;;;4.40;4.13;;;-4.60;32.30;;;;;;5032908;28;20445;-43
2024/01/09 07:10:29;;;;;;;3.28;3.08;;;-4.60;32.30;;;;;;5032227;28;21006;-44
2024/01/09 07:12:56;;;;;;;1.23;0.87;;;-4.60;32.40;;;;;;5032575;28;20292;-41
2024/01/09 07:15:22;;;;;;;0.80;0.65;;;-4.60;32.60;;;;;;5032619;28;20178;-43
2024/01/09 07:17:48;;;;;;;5.03;2.40;;;-4.60;32.60;;;;;;5032508;28;20531;-50
2024/01/09 07:20:14;;;;;;;1.02;0.93;;;-4.60;32.70;;;;;;5032371;28;20429;-43
2024/01/09 07:22:40;;;;;;;1.08;0.98;;;-4.60;32.60;;;;;;5032578;28;20248;-44
2024/01/09 07:25:06;;;;;;;3.03;2.67;;;-4.60;32.60;;;;;;5032409;28;20663;-45
2024/01/09 07:27:33;;;;;;;0.70;0.30;;;-4.60;32.50;;;;;;5032566;28;20177;-40
2024/01/09 07:30:00;;;;;;;2.00;1.48;;;-4.70;31.90;;;;;;5032137;28;20205;-47
2024/01/09 07:32:26;;;;;;;0.80;0.50;;;-4.80;31.70;;;;;;5014340;28;20205;-45
2024/01/09 07:34:52;;;;;;;1.33;1.07;;;-4.80;31.80;;;;;;5032259;28;20232;-42
2024/01/09 07:37:18;;;;;;;2.90;1.27;;;-4.80;32.20;;;;;;5032159;28;20416;-44
2024/01/09 07:39:44;;;;;;;6.33;3.90;;;-4.90;32.50;;;;;;5031890;28;20206;-46
2024/01/09 07:42:13;;;;;;;3.47;3.03;;;-4.80;32.50;;;;;;5032022;28;20492;-41
2024/01/09 07:44:39;;;;;;;2.58;2.28;;;-4.80;32.70;;;;;;5032113;28;20582;-43
2024/01/09 07:47:07;;;;;;;3.60;3.40;;;-4.70;32.90;;;;;;5024140;28;20175;-50
2024/01/09 07:49:33;;;;;;;2.55;2.00;;;-4.60;33.00;;;;;;5004169;28;20434;-47
2024/01/09 07:51:59;;;;;;;1.00;0.73;;;-4.40;33.00;;;;;;5012208;28;20178;-42
2024/01/09 07:54:25;;;;;;;0.70;0.30;;;-4.20;33.00;;;;;;5012090;28;20457;-46
2024/01/09 07:56:51;;;;;;;0.93;0.80;;;-4.10;32.90;;;;;;5012239;28;20499;-46
2024/01/09 07:59:17;;;;;;;2.00;1.80;;;-3.90;32.70;;;;;;5011901;28;20469;-41
2024/01/09 08:01:42;;;;;;;2.50;2.40;;;-3.90;32.60;;;;;;5012146;28;20175;-46
2024/01/09 08:04:08;;;;;;;2.37;1.03;;;-3.80;32.50;;;;;;5012078;28;20425;-43
2024/01/09 08:06:34;;;;;;;2.50;2.30;;;-3.70;32.60;;;;;;5012193;28;20261;-43
2024/01/09 08:09:00;;;;;;;1.00;0.80;;;-3.50;32.70;;;;;;4994184;28;20468;-46
2024/01/09 08:11:26;;;;;;;1.27;1.17;;;-3.40;32.60;;;;;;5012111;28;20261;-43
2024/01/09 08:13:52;;;;;;;4.00;3.70;;;-3.20;32.50;;;;;;5011964;28;20511;-50
2024/01/09 08:16:17;;;;;;;3.97;2.20;;;-3.10;32.30;;;;;;5011933;28;20413;-49
2024/01/09 08:18:43;;;;;;;1.47;1.23;;;-3.00;32.00;;;;;;5011962;28;20417;-44
2024/01/09 08:21:09;;;;;;;0.82;0.52;;;-2.90;32.00;;;;;;5011688;28;20426;-42
2024/01/09 08:23:35;;;;;;;3.90;3.30;;;-2.90;32.00;;;;;;5012311;28;20182;-47
2024/01/09 08:26:02;;;;;;;3.43;2.87;;;-2.90;31.80;;;;;;5012084;28;20562;-42
2024/01/09 08:28:27;;;;;;;3.20;3.00;;;-2.80;31.90;;;;;;5011967;28;20414;-42
2024/01/09 08:30:53;;;;;;;4.23;2.97;;;-2.80;31.90;;;;;;5011572;28;20576;-53
2024/01/09 08:33:19;;;;;;;1.48;1.38;;;-2.80;31.90;;;;;;5011680;28;20530;-51
2024/01/09 08:35:49;;;;;;;4.20;2.63;;;-2.70;31.90;;;;;;5012086;28;20182;-42
2024/01/09 08:38:17;;;;;;;0.80;0.45;;;-2.60;31.80;;;;;;5011884;28;20437;-47
2024/01/09 08:40:43;;;;;;;8.10;3.13;;;-2.40;31.60;;;;;;5011499;28;20264;-43
2024/01/09 08:43:09;;;;;;;4.55;4.18;;;-2.10;31.60;;;;;;5011808;28;20182;-42
2024/01/09 08:45:36;;;;;;;2.03;1.90;;;-1.90;31.40;;;;;;5011812;28;20840;-48
2024/01/09 08:48:02;;;;;;;4.53;3.05;;;-1.60;31.50;;;;;;5012361;28;20410;-42
2024/01/09 08:50:27;;;;;;;2.97;2.30;;;-1.40;31.50;;;;;;5011725;28;20206;-50
2024/01/09 08:52:54;;;;;;;1.30;1.20;;;-1.30;30.80;;;;;;5013771;28;20591;-43
2024/01/09 08:55:20;;;;;;;2.28;2.17;;;-1.20;30.60;;;;;;5015591;28;20467;-45
2024/01/09 08:57:46;;;;;;;1.65;1.55;;;-1.10;30.60;;;;;;5015458;28;20171;-48
2024/01/09 09:00:13;;;;;;;0.90;0.70;;;-1.00;30.10;;;;;;5015038;28;20210;-49
2024/01/09 09:02:39;;;;;;;1.35;1.25;;;-0.80;30.20;;;;;;5015514;28;20187;-42
2024/01/09 09:05:05;;;;;;;1.30;1.20;;;-0.50;30.20;;;;;;5015402;28;20257;-49
2024/01/09 09:07:31;;;;;;;1.58;1.48;;;-0.30;29.40;;;;;;5026688;28;20419;-48
2024/01/09 09:09:57;;;;;;;2.73;2.53;;;-0.10;29.10;;;;;;5034684;28;20552;-42
2024/01/09 09:12:25;;;;;;;1.17;1.07;;;0.40;29.40;;;;;;5034672;28;20456;-48
2024/01/09 09:14:51;;;;;;;8.32;4.60;;;0.80;28.70;;;;;;5034783;28;20914;-42
2024/01/09 09:17:18;;;;;;;3.70;3.40;;;1.20;28.20;;;;;;5034917;28;20239;-44
2024/01/09 09:19:44;;;;;;;4.78;3.25;;;1.50;28.50;;;;;;5034669;28;20431;-47
2024/01/09 09:22:11;;;;;;;2.53;1.90;;;1.60;28.40;;;;;;5034567;28;20178;-47
2024/01/09 09:24:37;;;;;;;2.80;2.58;;;1.70;28.20;;;;;;5034679;28;20511;-44
2024/01/09 09:27:03;;;;;;;3.63;1.48;;;1.60;28.20;;;;;;5034528;28;20579;-47
2024/01/09 09:29:28;;;;;;;2.30;2.10;;;1.60;27.70;;;;;;5034173;28;20196;-48
2024/01/09 09:31:54;;;;;;;8.87;3.93;;;1.40;27.00;;;;;;5034499;28;20181;-41
2024/01/09 09:34:20;;;;;;;3.10;2.73;;;1.30;27.40;;;;;;5034517;28;20470;-41
2024/01/09 09:36:46;;;;;;;4.57;4.28;;;1.10;26.80;;;;;;5034483;28;20420;-46
2024/01/09 09:39:13;;;;;;;2.50;2.05;;;1.00;27.40;;;;;;5034009;28;20587;-49
2024/01/09 09:41:43;;;;;;;4.15;3.80;;;0.90;27.50;;;;;;5034269;28;20212;-41
2024/01/09 09:44:15;;;;;;;9.18;3.20;;;0.70;27.60;;;;;;5034540;28;20262;-51
2024/01/09 09:46:41;;;;;;;5.55;3.88;;;0.70;28.00;;;;;;5034468;28;20180;-44
2024/01/09 09:49:11;;;;;;;1.35;1.25;;;0.60;28.10;;;;;;5034073;28;20205;-44
2024/01/09 09:51:37;;;;;;;1.05;0.95;;;0.80;28.50;;;;;;5034152;28;20181;-48
2024/01/09 09:54:05;;;;;;;5.35;3.33;;;1.30;27.60;;;;;;5033946;28;20358;-44
2024/01/09 09:56:31;;;;;;;1.73;1.60;;;1.80;27.10;;;;;;5034300;28;20187;-44
2024/01/09 09:58:57;;;;;;;4.15;1.55;;;2.30;25.50;;;;;;5033844;28;20654;-53
2024/01/09 10:01:24;;;;;;;8.70;4.47;;;2.70;25.00;;;;;;5034156;28;20192;-44
2024/01/09 10:03:56;;;;;;;2.35;2.25;;;2.80;25.50;;;;;;5032751;28;20231;-43
2024/01/09 10:06:24;;;;;;;5.43;2.22;;;2.70;25.30;;;;;;5033775;28;20659;-50
2024/01/09 10:08:53;;;;;;;4.38;4.07;;;2.50;24.10;;;;;;5033758;28;20181;-48
2024/01/09 10:11:19;;;;;;;1.80;1.70;;;2.40;25.10;;;;;;5033818;28;20285;-45
2024/01/09 10:13:45;;;;;;;4.43;2.40;;;2.70;25.70;;;;;;5033770;28;20614;-44
2024/01/09 10:16:12;;;;;;;3.25;2.97;;;3.30;25.60;;;;;;5033679;28;20409;-49
2024/01/09 10:18:39;;;;;;;3.50;2.35;;;3.90;24.70;;;;;;5033803;28;20256;-43
2024/01/09 10:21:06;;;;;;;6.07;5.50;;;4.60;23.40;;;;;;5033317;28;20687;-48
2024/01/09 10:23:39;;;;;;;5.15;4.80;;;5.00;22.50;;;;;;5033377;28;20227;-46
2024/01/09 10:26:10;;;;;;;10.48;3.60;;;5.50;22.80;;;;;;5017965;28;20545;-45
2024/01/09 10:28:36;;;;;;;4.20;3.15;;;5.90;22.40;;;;;;5014026;28;20299;-42
2024/01/09 10:31:06;;;;;;;5.65;4.05;;;6.40;21.00;;;;;;5014085;28;20199;-48
2024/01/09 10:33:32;;;;;;;15.75;2.97;;;6.60;19.40;;;;;;5013661;28;20240;-42
2024/01/09 10:35:59;;;;;;;22.90;6.18;;;6.80;19.60;;;;;;5013516;28;20178;-42
2024/01/09 10:38:25;;;;;;;5.07;3.80;;;7.00;20.00;;;;;;5013674;28;20175;-49
2024/01/09 10:40:56;;;;;;;4.97;3.05;;;7.00;19.50;;;;;;5013620;28;20202;-48
2024/01/09 10:43:25;;;;;;;12.55;4.30;;;6.90;20.30;;;;;;5013597;28;20209;-45
2024/01/09 10:45:52;;;;;;;6.53;4.67;;;6.70;20.20;;;;;;5013730;28;20186;-42
2024/01/09 10:48:22;;;;;;;7.22;4.60;;;6.50;20.90;;;;;;5012484;28;20851;-47
2024/01/09 10:50:51;;;;;;;9.18;3.78;;;6.30;20.90;;;;;;5013084;28;20673;-45
2024/01/09 10:53:23;;;;;;;9.68;3.33;;;6.50;20.80;;;;;;5013079;28;20214;-43
2024/01/09 10:55:49;;;;;;;6.78;6.10;;;6.60;20.30;;;;;;5013345;28;20226;-48
2024/01/09 10:58:17;;;;;;;12.27;5.43;;;6.50;19.50;;;;;;5013167;28;20175;-49
2024/01/09 11:00:44;;;;;;;5.38;4.78;;;6.30;19.70;;;;;;5012767;28;20657;-43
2024/01/09 11:03:11;;;;;;;3.85;3.35;;;6.40;20.80;;;;;;5012956;28;20267;-43
2024/01/09 11:05:37;;;;;;;6.78;6.18;;;6.50;21.10;;;;;;5013061;28;20211;-49
2024/01/09 11:08:09;;;;;;;7.47;6.75;;;6.30;20.00;;;;;;5013199;28;20190;-43
2024/01/09 11:10:35;;;;;;;14.85;6.53;;;6.10;20.60;;;;;;5012741;28;20731;-49
2024/01/09 11:13:06;;;;;;;15.20;3.15;;;5.90;20.80;;;;;;5012859;28;20253;-43
2024/01/09 11:15:43;;;;;;;13.57;5.07;;;5.80;21.50;;;;;;5012586;28;20216;-42
2024/01/09 11:18:14;;;;;;;4.00;2.63;;;5.60;21.80;;;;;;5012920;28;20186;-45
2024/01/09 11:20:40;;;;;;;9.88;3.42;;;5.50;22.00;;;;;;5012725;28;20195;-46
2024/01/09 11:23:06;;;;;;;10.07;5.32;;;5.30;22.00;;;;;;5012817;28;20265;-42
2024/01/09 11:25:33;;;;;;;6.70;2.10;;;5.20;22.80;;;;;;5012671;28;20760;-47
2024/01/09 11:28:00;;;;;;;6.50;4.85;;;5.10;23.20;;;;;;5012654;28;20779;-43
2024/01/09 11:30:27;;;;;;;4.05;3.75;;;4.90;22.10;;;;;;5012560;28;20355;-43
2024/01/09 11:32:57;;;;;;;11.98;4.43;;;4.80;22.90;;;;;;5012645;28;20202;-48
2024/01/09 11:35:27;;;;;;;10.90;4.78;;;4.80;23.00;;;;;;5012652;28;20183;-43
2024/01/09 11:37:58;;;;;;;3.35;3.08;;;4.50;21.20;;;;;;5012620;28;20197;-43
2024/01/09 11:40:24;;;;;;;19.05;4.70;;;4.10;20.00;;;;;;5012085;28;20214;-44
2024/01/09 11:42:51;;;;;;;1.87;1.57;;;3.80;23.40;;;;;;5012388;28;20197;-53
2024/01/09 11:45:25;;;;;;;11.35;5.35;;;4.30;24.50;;;;;;5012385;28;20421;-44
2024/01/09 11:47:53;;;;;;;3.70;3.30;;;4.60;23.70;;;;;;5012438;28;20179;-51
2024/01/09 11:50:19;;;;;;;15.05;6.00;;;4.90;24.60;;;;;;5012148;28;20697;-50
2024/01/09 11:52:47;;;;;;;4.05;2.60;;;5.10;24.50;;;;;;5012231;28;20756;-43
2024/01/09 11:55:14;;;;;;;10.05;6.60;;;4.90;21.80;;;;;;5012534;28;20210;-47
2024/01/09 11:57:42;;;;;;;15.65;6.47;;;5.00;22.40;;;;;;5012235;28;20174;-43
2024/01/09 12:00:10;;;;;;;4.40;3.55;;;4.90;21.00;;;;;;5012222;28;20588;-42
2024/01/09 12:02:36;;;;;;;5.78;2.17;;;4.90;20.40;;;;;;5012151;28;20178;-46
2024/01/09 12:05:06;;;;;;;3.30;2.33;;;5.10;20.00;;;;;;5027256;28;20231;-43
2024/01/09 12:07:33;;;;;;;8.20;2.88;;;5.20;22.20;;;;;;5028831;28;20174;-41
2024/01/09 12:10:04;;;;;;;5.97;2.45;;;5.40;21.00;;;;;;5011824;28;20206;-47
2024/01/09 12:12:30;;;;;;;9.75;3.92;;;5.40;21.30;;;;;;5014476;28;20694;-47
2024/01/09 12:14:58;;;;;;;5.23;2.60;;;5.20;20.60;;;;;;5031683;28;20177;-42
2024/01/09 12:17:41;;;;;;;8.30;5.88;;;5.30;21.60;;;;;;5031582;28;20977;-45
2024/01/09 12:20:10;;;;;;;14.40;3.45;;;5.00;21.10;;;;;;5031567;28;20252;-50
2024/01/09 12:22:36;;;;;;;4.25;3.85;;;4.80;21.00;;;;;;5031529;28;20232;-49
2024/01/09 12:25:03;;;;;;;10.57;3.63;;;4.70;22.40;;;;;;5024783;28;20186;-43
2024/01/09 12:27:30;;;;;;;5.72;5.22;;;4.60;21.50;;;;;;5013426;28;20189;-43
2024/01/09 12:29:56;;;;;;;15.80;5.22;;;5.00;23.00;;;;;;5015766;28;20221;-50
2024/01/09 12:32:23;;;;;;;4.40;3.65;;;5.80;22.10;;;;;;5015677;28;20190;-48
2024/01/09 12:34:50;;;;;;;8.35;4.85;;;6.60;21.70;;;;;;5015870;28;20413;-42
2024/01/09 12:37:16;;;;;;;10.40;4.30;;;7.30;19.50;;;;;;5015746;28;20182;-46
2024/01/09 12:39:42;;;;;;;4.75;4.30;;;7.70;18.90;;;;;;5015423;28;20217;-51
2024/01/09 12:42:13;;;;;;;12.82;5.75;;;8.10;18.00;;;;;;5015742;28;20776;-43
2024/01/09 12:44:43;;;;;;;17.15;7.18;;;8.50;17.10;;;;;;5015677;28;20171;-48